Time;durP1;ratioP1;P1;durP2;ratioP2;P2;SDS_P1;SDS_P2;PMS_P1;PMS_P2;Temp;Humidity;BMP_temperature;BMP_pressure;BME280_temperature;BME280_humidity;BME280_pressure;Samples;Min_cycle;Max_cycle;Signal;HPM_P1;HPM_P2
2022/09/19 00:02:02;;;;;;;0.50;0.50;;;19.70;50.40;;;;;;5066312;28;45459;-75
2022/09/19 00:04:30;;;;;;;2.08;0.80;;;19.70;50.40;;;;;;5066418;28;45265;-76
2022/09/19 00:06:57;;;;;;;1.38;0.80;;;19.70;50.40;;;;;;5066646;28;45301;-75
2022/09/19 00:09:25;;;;;;;1.38;0.80;;;19.70;50.40;;;;;;5066764;28;45379;-76
2022/09/19 00:11:51;;;;;;;0.60;0.60;;;19.70;50.40;;;;;;5058195;28;46326;-75
2022/09/19 00:14:23;;;;;;;0.70;0.70;;;19.70;50.30;;;;;;5046051;28;45246;-75
2022/09/19 00:16:50;;;;;;;1.10;0.73;;;19.70;50.30;;;;;;5046367;28;45271;-76
2022/09/19 00:19:19;;;;;;;0.65;0.65;;;19.70;50.30;;;;;;5046222;28;45573;-74
2022/09/19 00:21:47;;;;;;;0.98;0.85;;;19.70;50.30;;;;;;5046147;28;46489;-74
2022/09/19 00:26:59;;;;;;;0.70;0.70;;;19.70;50.20;;;;;;5043670;28;45170;-74
2022/09/19 00:29:26;;;;;;;0.65;0.65;;;19.60;50.30;;;;;;5047008;28;45316;-76
2022/09/19 00:31:53;;;;;;;1.77;0.70;;;19.70;50.30;;;;;;5049597;28;45383;-76
2022/09/19 00:34:22;;;;;;;0.63;0.63;;;19.60;50.30;;;;;;5049108;28;45258;-74
2022/09/19 00:36:48;;;;;;;0.70;0.70;;;19.60;50.30;;;;;;5066610;28;45257;-76
2022/09/19 00:39:16;;;;;;;1.30;0.75;;;19.60;50.20;;;;;;5069887;28;45198;-76
2022/09/19 00:41:43;;;;;;;0.80;0.60;;;19.60;50.20;;;;;;5069599;28;45490;-76
2022/09/19 00:44:43;;;;;;;1.38;0.82;;;19.60;50.30;;;;;;5069479;28;45360;-76
2022/09/19 00:47:11;;;;;;;0.82;0.63;;;19.60;50.30;;;;;;5068892;28;45297;-74
2022/09/19 00:49:41;;;;;;;0.85;0.80;;;19.60;50.30;;;;;;5069903;28;45246;-74
2022/09/19 00:52:09;;;;;;;0.60;0.60;;;19.60;50.20;;;;;;5069474;28;46887;-76
2022/09/19 00:54:40;;;;;;;0.77;0.75;;;19.60;50.30;;;;;;5069400;28;45212;-74
2022/09/19 00:57:07;;;;;;;0.60;0.60;;;19.60;50.30;;;;;;5051862;28;45323;-75
2022/09/19 00:59:35;;;;;;;0.65;0.65;;;19.60;50.30;;;;;;5049430;28;45497;-76
2022/09/19 01:02:04;;;;;;;0.68;0.68;;;19.60;50.30;;;;;;5049033;28;46556;-74
2022/09/19 01:04:35;;;;;;;0.70;0.70;;;19.60;50.20;;;;;;5048987;28;45291;-76
2022/09/19 01:07:06;;;;;;;0.68;0.68;;;19.60;50.20;;;;;;5049032;28;45278;-75
2022/09/19 01:09:39;;;;;;;0.73;0.73;;;19.60;50.30;;;;;;5049264;28;45487;-75
2022/09/19 01:12:17;;;;;;;1.35;0.80;;;19.60;50.20;;;;;;5048472;28;45295;-74
2022/09/19 01:15:12;;;;;;;0.80;0.57;;;19.60;50.20;;;;;;5048942;28;45246;-74
2022/09/19 01:17:45;;;;;;;0.50;0.50;;;19.60;50.20;;;;;;5043430;28;45187;-75
2022/09/19 01:20:54;;;;;;;0.65;0.50;;;19.60;50.30;;;;;;5049234;28;45274;-75
2022/09/19 01:23:46;;;;;;;0.70;0.70;;;19.60;50.20;;;;;;5048600;28;46399;-77
2022/09/19 01:26:23;;;;;;;0.47;0.47;;;19.60;50.20;;;;;;5047912;28;45220;-75
2022/09/19 01:28:52;;;;;;;0.70;0.70;;;19.60;50.20;;;;;;5048330;28;45186;-75
2022/09/19 01:31:21;;;;;;;1.75;0.63;;;19.60;50.30;;;;;;5048234;28;45328;-75
2022/09/19 01:33:53;;;;;;;0.98;0.73;;;19.50;50.20;;;;;;5048394;28;46607;-76
2022/09/19 01:36:20;;;;;;;0.77;0.70;;;19.50;50.20;;;;;;5048414;28;45417;-74
2022/09/19 01:38:49;;;;;;;0.60;0.60;;;19.50;50.20;;;;;;5048451;28;45383;-76
2022/09/19 01:41:16;;;;;;;0.70;0.70;;;19.50;50.30;;;;;;5048625;28;45241;-75
2022/09/19 01:43:42;;;;;;;0.50;0.50;;;19.50;50.30;;;;;;5048322;28;45274;-76
2022/09/19 01:46:12;;;;;;;1.27;0.70;;;19.50;50.30;;;;;;5048667;28;45262;-75
2022/09/19 01:48:44;;;;;;;0.63;0.60;;;19.50;50.30;;;;;;5048756;28;45293;-75
2022/09/19 01:51:19;;;;;;;0.57;0.57;;;19.50;50.40;;;;;;5048577;28;45437;-75
2022/09/19 01:53:59;;;;;;;0.73;0.73;;;19.40;50.30;;;;;;5048154;28;46367;-74
2022/09/19 01:56:29;;;;;;;0.95;0.65;;;19.40;50.30;;;;;;5059716;28;45202;-75
2022/09/19 01:59:00;;;;;;;0.60;0.60;;;19.40;50.30;;;;;;5068277;28;45375;-75
2022/09/19 02:01:30;;;;;;;0.98;0.70;;;19.40;50.30;;;;;;5068561;28;45180;-75
2022/09/19 02:04:00;;;;;;;0.70;0.50;;;19.40;50.30;;;;;;5068385;28;47386;-76
2022/09/19 02:06:30;;;;;;;0.75;0.57;;;19.40;50.30;;;;;;5068264;28;45128;-77
2022/09/19 02:09:00;;;;;;;1.10;0.60;;;19.40;50.30;;;;;;5068315;28;45234;-75
2022/09/19 02:11:27;;;;;;;0.75;0.50;;;19.40;50.30;;;;;;5063779;28;45290;-76
2022/09/19 02:13:56;;;;;;;0.52;0.52;;;19.40;50.30;;;;;;5047990;28;45368;-75
2022/09/19 02:16:25;;;;;;;0.77;0.77;;;19.40;50.30;;;;;;5047668;28;45369;-75
2022/09/19 02:18:54;;;;;;;0.77;0.50;;;19.40;50.30;;;;;;5047872;28;45247;-75
2022/09/19 02:21:25;;;;;;;0.50;0.50;;;19.40;50.30;;;;;;5048105;28;45359;-75
2022/09/19 02:23:53;;;;;;;0.55;0.55;;;19.40;50.30;;;;;;5047680;28;45205;-75
2022/09/19 02:26:21;;;;;;;0.40;0.38;;;19.40;50.30;;;;;;5047637;28;45296;-75
2022/09/19 02:28:49;;;;;;;0.93;0.50;;;19.40;50.40;;;;;;5047777;28;45244;-76
2022/09/19 02:31:16;;;;;;;0.50;0.50;;;19.40;51.00;;;;;;5048014;28;45297;-75
2022/09/19 02:33:46;;;;;;;0.50;0.50;;;19.40;50.30;;;;;;5046752;28;45261;-73
2022/09/19 02:36:16;;;;;;;0.50;0.50;;;19.40;50.30;;;;;;5059582;28;45423;-76
2022/09/19 02:38:46;;;;;;;0.60;0.60;;;19.40;50.30;;;;;;5067827;28;45236;-77
2022/09/19 02:41:21;;;;;;;0.52;0.52;;;19.40;50.30;;;;;;5067922;28;45465;-75
2022/09/19 02:43:49;;;;;;;0.50;0.50;;;19.40;50.30;;;;;;5067791;28;47153;-76
2022/09/19 02:46:19;;;;;;;0.55;0.55;;;19.40;50.30;;;;;;5067766;28;45301;-76
2022/09/19 02:48:51;;;;;;;0.63;0.47;;;19.30;50.30;;;;;;5067769;28;45292;-75
2022/09/19 02:51:20;;;;;;;0.98;0.60;;;19.30;50.30;;;;;;5067803;28;45197;-75
2022/09/19 02:53:48;;;;;;;0.50;0.50;;;19.40;50.40;;;;;;5066694;28;46281;-75
2022/09/19 02:56:15;;;;;;;0.60;0.57;;;19.40;50.40;;;;;;5057194;28;45352;-76
2022/09/19 02:58:44;;;;;;;0.43;0.43;;;19.30;50.30;;;;;;5047244;28;45186;-75
2022/09/19 03:01:13;;;;;;;0.45;0.45;;;19.40;50.40;;;;;;5047517;28;45289;-75
2022/09/19 03:06:32;;;;;;;0.47;0.43;;;19.40;50.40;;;;;;5044654;28;45237;-75
2022/09/19 03:08:58;;;;;;;0.50;0.50;;;19.30;50.30;;;;;;5047153;28;45242;-75
2022/09/19 03:11:25;;;;;;;0.30;0.30;;;19.30;50.40;;;;;;5047016;28;45177;-76
2022/09/19 03:13:58;;;;;;;0.52;0.52;;;19.30;50.30;;;;;;5046880;28;45526;-75
2022/09/19 03:16:26;;;;;;;0.30;0.30;;;19.30;50.30;;;;;;5047173;28;45306;-74
2022/09/19 03:18:55;;;;;;;0.40;0.40;;;19.30;50.40;;;;;;5047046;28;45275;-75
2022/09/19 03:21:22;;;;;;;0.47;0.47;;;19.30;50.40;;;;;;5047160;28;45398;-76
2022/09/19 03:23:51;;;;;;;0.30;0.30;;;19.30;50.40;;;;;;5046570;28;46691;-74
2022/09/19 03:26:20;;;;;;;0.57;0.57;;;19.30;50.40;;;;;;5046929;28;45223;-76
2022/09/19 03:28:46;;;;;;;0.55;0.55;;;19.30;50.30;;;;;;5046921;28;45246;-74
2022/09/19 03:31:13;;;;;;;0.43;0.43;;;19.30;50.40;;;;;;5047003;28;45242;-75
2022/09/19 03:33:40;;;;;;;0.50;0.50;;;19.30;50.40;;;;;;5046750;28;46424;-75
2022/09/19 03:36:08;;;;;;;0.50;0.50;;;19.30;50.50;;;;;;5046831;28;45201;-74
2022/09/19 03:38:34;;;;;;;1.23;0.47;;;19.30;50.40;;;;;;5046008;28;45426;-76
2022/09/19 03:41:03;;;;;;;0.40;0.40;;;19.30;50.40;;;;;;5047027;28;45408;-75
2022/09/19 03:43:29;;;;;;;0.30;0.30;;;19.20;50.40;;;;;;5046577;28;45204;-75
2022/09/19 03:45:57;;;;;;;0.40;0.40;;;19.30;50.40;;;;;;5046481;28;45187;-74
2022/09/19 03:48:24;;;;;;;0.60;0.40;;;19.30;50.40;;;;;;5046549;28;44668;-75
2022/09/19 03:50:51;;;;;;;0.50;0.50;;;19.30;50.30;;;;;;5046761;28;45298;-75
2022/09/19 03:53:17;;;;;;;0.40;0.40;;;19.30;50.30;;;;;;5046400;28;46428;-75
2022/09/19 03:55:44;;;;;;;0.52;0.52;;;19.30;50.50;;;;;;5052253;28;45150;-75
2022/09/19 03:58:13;;;;;;;0.40;0.40;;;19.20;50.40;;;;;;5066697;28;45257;-74
2022/09/19 04:00:39;;;;;;;0.50;0.50;;;19.20;50.40;;;;;;5066756;28;45409;-74
2022/09/19 04:03:06;;;;;;;1.13;0.40;;;19.20;50.30;;;;;;5066336;28;45354;-74
2022/09/19 04:05:33;;;;;;;0.57;0.50;;;19.20;50.40;;;;;;5068617;28;45246;-74
2022/09/19 04:08:00;;;;;;;0.32;0.32;;;19.20;50.40;;;;;;5070443;28;45147;-74
2022/09/19 04:10:27;;;;;;;0.40;0.40;;;19.20;50.40;;;;;;5070208;28;45161;-74
2022/09/19 04:12:56;;;;;;;0.40;0.40;;;19.10;50.50;;;;;;5053241;28;46864;-74
2022/09/19 04:15:24;;;;;;;0.38;0.38;;;19.10;50.50;;;;;;5049755;28;45244;-74
2022/09/19 04:17:51;;;;;;;1.00;0.50;;;19.10;50.50;;;;;;5049763;28;45200;-75
2022/09/19 04:20:18;;;;;;;0.30;0.30;;;19.10;50.50;;;;;;5050125;28;45397;-75
2022/09/19 04:22:44;;;;;;;0.50;0.50;;;19.10;50.40;;;;;;5048901;28;45350;-75
2022/09/19 04:25:15;;;;;;;0.40;0.40;;;19.10;50.50;;;;;;5049574;28;45233;-76
2022/09/19 04:27:44;;;;;;;0.40;0.40;;;19.10;50.40;;;;;;5049671;28;45238;-76
2022/09/19 04:30:14;;;;;;;0.32;0.32;;;19.10;50.40;;;;;;5049867;28;45619;-75
2022/09/19 04:32:43;;;;;;;0.45;0.40;;;19.00;50.40;;;;;;5049383;28;45450;-76
2022/09/19 04:35:10;;;;;;;0.90;0.50;;;19.10;50.50;;;;;;5053280;28;45324;-75
2022/09/19 04:37:36;;;;;;;0.30;0.30;;;19.00;50.40;;;;;;5069736;28;45368;-75
2022/09/19 04:40:03;;;;;;;0.30;0.30;;;19.00;50.40;;;;;;5070276;28;45245;-75
2022/09/19 04:42:34;;;;;;;0.47;0.47;;;19.00;50.40;;;;;;5069379;28;47028;-76
2022/09/19 04:45:01;;;;;;;0.20;0.20;;;19.00;50.50;;;;;;5069645;28;45308;-75
2022/09/19 04:47:28;;;;;;;1.20;0.40;;;19.00;50.40;;;;;;5069660;28;45300;-75
2022/09/19 04:49:56;;;;;;;0.47;0.40;;;19.00;50.40;;;;;;5069793;28;45602;-76
2022/09/19 04:52:24;;;;;;;0.65;0.43;;;18.90;50.40;;;;;;5069406;28;45194;-75
2022/09/19 04:54:51;;;;;;;0.43;0.43;;;18.90;50.40;;;;;;5069413;28;45466;-75
2022/09/19 04:57:18;;;;;;;0.40;0.40;;;18.90;50.40;;;;;;5050245;28;45294;-75
2022/09/19 04:59:45;;;;;;;1.05;0.60;;;18.90;50.40;;;;;;5049402;28;45463;-75
2022/09/19 05:02:12;;;;;;;0.50;0.50;;;18.90;50.40;;;;;;5048968;28;45549;-75
2022/09/19 05:04:41;;;;;;;0.40;0.32;;;18.90;50.40;;;;;;5049134;28;45239;-75
2022/09/19 05:07:10;;;;;;;0.55;0.43;;;18.90;50.40;;;;;;5049420;28;45227;-75
2022/09/19 05:09:36;;;;;;;1.20;0.52;;;18.80;50.30;;;;;;5049306;28;45412;-75
2022/09/19 05:12:04;;;;;;;0.40;0.40;;;18.80;50.40;;;;;;5047637;28;46491;-75
2022/09/19 05:14:31;;;;;;;0.40;0.40;;;18.80;50.40;;;;;;5048627;28;45408;-76
2022/09/19 05:16:58;;;;;;;1.65;0.57;;;18.80;50.40;;;;;;5048404;28;45241;-75
2022/09/19 05:19:24;;;;;;;0.40;0.40;;;18.80;50.40;;;;;;5048862;28;45446;-75
2022/09/19 05:21:51;;;;;;;0.30;0.30;;;18.80;51.00;;;;;;5048719;28;45246;-75
2022/09/19 05:24:20;;;;;;;0.80;0.50;;;18.80;50.30;;;;;;5048723;28;45226;-75
2022/09/19 05:26:46;;;;;;;0.82;0.40;;;18.70;50.40;;;;;;5048791;28;45388;-75
2022/09/19 05:29:13;;;;;;;0.40;0.40;;;18.80;50.30;;;;;;5048937;28;45314;-75
2022/09/19 05:31:40;;;;;;;1.70;0.50;;;18.70;50.30;;;;;;5048399;28;45294;-75
2022/09/19 05:34:09;;;;;;;1.55;0.40;;;18.70;50.30;;;;;;5048651;28;45229;-75
2022/09/19 05:36:36;;;;;;;0.40;0.40;;;18.70;50.40;;;;;;5048965;28;45426;-75
2022/09/19 05:39:03;;;;;;;0.35;0.35;;;18.70;50.30;;;;;;5048605;28;45357;-75
2022/09/19 05:41:31;;;;;;;0.40;0.40;;;18.70;50.30;;;;;;5048207;28;45454;-75
2022/09/19 05:43:58;;;;;;;1.13;0.63;;;18.70;50.30;;;;;;5048422;28;45174;-75
2022/09/19 05:46:24;;;;;;;0.60;0.60;;;18.60;50.20;;;;;;5048188;28;45143;-75
2022/09/19 05:48:51;;;;;;;0.47;0.43;;;18.60;50.30;;;;;;5049034;28;45501;-75
2022/09/19 05:51:18;;;;;;;0.50;0.50;;;18.60;50.20;;;;;;5048488;28;45377;-74
2022/09/19 05:53:53;;;;;;;0.43;0.43;;;18.60;50.20;;;;;;5048301;28;45222;-75
2022/09/19 05:56:20;;;;;;;1.02;0.60;;;18.60;50.20;;;;;;5059310;28;45293;-75
2022/09/19 05:58:49;;;;;;;0.45;0.45;;;18.60;50.20;;;;;;5067887;28;45192;-74
2022/09/19 06:01:16;;;;;;;1.27;0.70;;;18.60;50.20;;;;;;5068319;28;46522;-75
2022/09/19 06:03:44;;;;;;;1.20;0.55;;;18.60;50.20;;;;;;5068447;28;45258;-75
2022/09/19 06:06:14;;;;;;;0.95;0.40;;;18.60;50.20;;;;;;5068581;28;45188;-75
2022/09/19 06:08:42;;;;;;;1.35;0.50;;;18.60;50.20;;;;;;5068671;28;45519;-75
2022/09/19 06:11:10;;;;;;;0.50;0.50;;;18.60;50.20;;;;;;5064236;28;46154;-75
2022/09/19 06:16:22;;;;;;;0.93;0.52;;;18.60;50.20;;;;;;5030361;28;45290;-75
2022/09/19 06:18:49;;;;;;;1.33;0.55;;;18.60;50.20;;;;;;5047823;28;45218;-75
2022/09/19 06:21:16;;;;;;;0.90;0.50;;;18.60;50.20;;;;;;5047684;28;45321;-75
2022/09/19 06:23:43;;;;;;;0.45;0.45;;;18.60;50.20;;;;;;5047587;28;45366;-75
2022/09/19 06:26:11;;;;;;;0.60;0.60;;;18.50;50.20;;;;;;5047802;28;45325;-74
2022/09/19 06:28:38;;;;;;;0.55;0.40;;;18.60;50.20;;;;;;5046787;28;45266;-74
2022/09/19 06:31:06;;;;;;;0.40;0.40;;;18.60;50.20;;;;;;5047455;28;47351;-75
2022/09/19 06:33:34;;;;;;;0.50;0.50;;;18.50;50.20;;;;;;5047282;28;45288;-75
2022/09/19 06:36:01;;;;;;;0.75;0.60;;;18.60;50.30;;;;;;5058662;28;45248;-75
2022/09/19 06:38:30;;;;;;;1.10;0.70;;;18.60;50.30;;;;;;5068060;28;45173;-75
2022/09/19 06:40:58;;;;;;;1.02;0.60;;;18.60;50.30;;;;;;5066416;28;47545;-74
2022/09/19 06:43:26;;;;;;;1.58;0.70;;;18.60;50.30;;;;;;5059283;28;45486;-75
2022/09/19 06:45:52;;;;;;;1.77;0.68;;;18.60;50.00;;;;;;5045606;28;45120;-74
2022/09/19 06:48:19;;;;;;;1.63;0.73;;;18.50;49.70;;;;;;5047548;28;45490;-75
2022/09/19 06:50:47;;;;;;;0.77;0.60;;;18.50;49.60;;;;;;5045900;28;46665;-73
2022/09/19 06:53:14;;;;;;;1.02;0.63;;;18.50;49.40;;;;;;5046197;28;45313;-75
2022/09/19 06:55:41;;;;;;;1.60;0.60;;;18.50;49.30;;;;;;5044724;28;45391;-75
2022/09/19 06:58:08;;;;;;;4.07;0.80;;;18.50;49.40;;;;;;5046023;28;45444;-75
2022/09/19 07:00:38;;;;;;;1.35;0.65;;;18.50;49.30;;;;;;5046514;28;46638;-75
2022/09/19 07:03:05;;;;;;;2.10;0.63;;;18.50;49.20;;;;;;5046788;28;45404;-75
2022/09/19 07:05:33;;;;;;;1.38;0.60;;;18.50;49.20;;;;;;5034729;28;45438;-75
2022/09/19 07:08:08;;;;;;;2.10;0.70;;;18.50;49.10;;;;;;5046963;28;45168;-75
2022/09/19 07:10:36;;;;;;;1.40;0.50;;;18.50;48.90;;;;;;5043335;28;46404;-75
2022/09/19 07:13:04;;;;;;;1.77;0.88;;;18.50;48.90;;;;;;5046312;28;45447;-74
2022/09/19 07:15:32;;;;;;;2.83;0.68;;;18.50;48.90;;;;;;5047078;28;45336;-74
2022/09/19 07:17:59;;;;;;;3.53;0.68;;;18.50;48.80;;;;;;5046579;28;45449;-75
2022/09/19 07:20:26;;;;;;;1.08;0.57;;;18.50;48.80;;;;;;5046486;28;45430;-75
2022/09/19 07:23:04;;;;;;;2.53;0.93;;;18.50;48.80;;;;;;5046304;28;45255;-75
2022/09/19 07:25:32;;;;;;;2.97;0.80;;;18.50;48.70;;;;;;5047016;28;45258;-75
2022/09/19 07:27:59;;;;;;;2.55;0.75;;;18.50;48.70;;;;;;5046428;28;45407;-75
2022/09/19 07:30:26;;;;;;;1.70;0.80;;;18.50;48.50;;;;;;5043403;28;45372;-75
2022/09/19 07:32:55;;;;;;;1.35;0.77;;;18.50;48.40;;;;;;5046824;28;45320;-75
2022/09/19 07:35:22;;;;;;;1.45;0.75;;;18.50;48.50;;;;;;5052212;28;45271;-75
2022/09/19 07:37:52;;;;;;;1.45;0.85;;;18.40;48.30;;;;;;5055877;28;45352;-75
2022/09/19 07:40:20;;;;;;;2.80;0.85;;;18.40;48.20;;;;;;5046195;28;45297;-75
2022/09/19 07:42:47;;;;;;;1.75;0.85;;;18.40;48.30;;;;;;5046736;28;45151;-75
2022/09/19 07:45:14;;;;;;;2.00;0.85;;;18.40;48.10;;;;;;5046075;28;45188;-75
2022/09/19 07:47:44;;;;;;;2.17;0.68;;;18.40;48.10;;;;;;5046913;28;45436;-75
2022/09/19 07:50:14;;;;;;;1.85;0.68;;;18.40;48.10;;;;;;5046775;28;46368;-76
2022/09/19 07:52:41;;;;;;;2.78;1.02;;;18.50;48.20;;;;;;5046283;28;45199;-76
2022/09/19 07:55:09;;;;;;;2.55;1.10;;;18.50;48.10;;;;;;5047266;28;45389;-75
2022/09/19 07:57:37;;;;;;;1.30;0.68;;;18.50;48.10;;;;;;5056832;28;45342;-76
2022/09/19 08:00:06;;;;;;;5.38;1.13;;;18.50;48.30;;;;;;5046461;28;45239;-75
2022/09/19 08:02:33;;;;;;;4.70;0.88;;;18.50;48.20;;;;;;5046115;28;45496;-76
2022/09/19 08:05:00;;;;;;;3.28;0.90;;;18.50;48.00;;;;;;5046783;28;45328;-76
2022/09/19 08:07:30;;;;;;;4.25;1.02;;;18.50;48.10;;;;;;5046484;28;45192;-76
2022/09/19 08:09:57;;;;;;;1.98;1.00;;;18.50;48.40;;;;;;5044136;28;46356;-75
2022/09/19 08:12:24;;;;;;;3.35;0.95;;;18.50;48.50;;;;;;5047395;28;45242;-75
2022/09/19 08:14:53;;;;;;;2.17;0.80;;;18.50;48.30;;;;;;5047194;28;45349;-78
2022/09/19 08:17:21;;;;;;;3.97;1.05;;;18.60;48.30;;;;;;5046891;28;45559;-75
2022/09/19 08:19:47;;;;;;;2.00;0.90;;;18.60;48.50;;;;;;5045789;28;46420;-75
2022/09/19 08:22:14;;;;;;;1.45;0.90;;;18.60;48.50;;;;;;5046861;28;45419;-76
2022/09/19 08:24:41;;;;;;;3.25;0.70;;;18.60;48.60;;;;;;5046428;28;45393;-75
2022/09/19 08:27:08;;;;;;;3.90;1.10;;;18.60;48.70;;;;;;5046830;28;45559;-75
2022/09/19 08:29:37;;;;;;;1.70;0.60;;;18.60;48.70;;;;;;5046297;28;45499;-75
2022/09/19 08:32:06;;;;;;;1.88;0.80;;;18.60;48.60;;;;;;5046825;28;45433;-76
2022/09/19 08:34:33;;;;;;;1.35;0.60;;;18.60;48.70;;;;;;5045428;28;45383;-77
2022/09/19 08:37:00;;;;;;;2.05;0.68;;;18.60;48.70;;;;;;5052390;28;45441;-75
2022/09/19 08:39:27;;;;;;;1.45;0.90;;;18.60;48.70;;;;;;5045689;28;46633;-75
2022/09/19 08:42:01;;;;;;;2.25;0.57;;;18.70;48.70;;;;;;5046583;28;45439;-76
2022/09/19 08:44:32;;;;;;;1.83;0.70;;;18.70;48.80;;;;;;5046165;28;45372;-77
2022/09/19 08:47:01;;;;;;;1.17;0.63;;;18.70;48.60;;;;;;5046427;28;45243;-76
2022/09/19 08:49:32;;;;;;;3.67;1.40;;;18.70;48.50;;;;;;5046714;28;46371;-78
2022/09/19 08:52:00;;;;;;;1.95;0.82;;;18.70;48.40;;;;;;5050813;28;45239;-76
2022/09/19 08:54:30;;;;;;;2.53;1.00;;;18.70;48.50;;;;;;5049944;28;45339;-76
2022/09/19 08:56:57;;;;;;;2.72;0.82;;;18.80;48.60;;;;;;5066688;28;45317;-76
2022/09/19 08:59:26;;;;;;;2.35;0.88;;;18.80;48.70;;;;;;5057950;28;46846;-75
2022/09/19 09:01:56;;;;;;;3.65;1.00;;;18.80;48.70;;;;;;5049742;28;45251;-76
2022/09/19 09:04:26;;;;;;;1.73;0.82;;;18.80;48.50;;;;;;5043389;28;45204;-77
2022/09/19 09:07:01;;;;;;;3.90;1.08;;;18.90;48.30;;;;;;5030506;28;45278;-76
2022/09/19 09:09:33;;;;;;;3.53;0.98;;;18.90;47.80;;;;;;5040805;28;46479;-76
2022/09/19 09:12:02;;;;;;;3.20;1.20;;;18.90;47.80;;;;;;5050639;28;45207;-77
2022/09/19 09:14:35;;;;;;;3.22;1.10;;;18.90;47.50;;;;;;5048607;28;45419;-75
2022/09/19 09:17:09;;;;;;;2.13;0.80;;;18.90;48.30;;;;;;5049279;28;45482;-77
2022/09/19 09:19:48;;;;;;;1.85;0.80;;;19.00;47.80;;;;;;5050618;28;46666;-75
2022/09/19 09:22:20;;;;;;;1.90;0.85;;;19.00;47.80;;;;;;5048374;28;45341;-76
2022/09/19 09:24:51;;;;;;;2.63;0.73;;;19.00;47.60;;;;;;5048601;28;45485;-76
2022/09/19 09:27:21;;;;;;;1.60;0.70;;;19.00;47.60;;;;;;5048819;28;45252;-76
2022/09/19 09:29:50;;;;;;;2.60;1.10;;;19.00;47.40;;;;;;5045543;28;45300;-76
2022/09/19 09:32:18;;;;;;;3.88;0.90;;;19.10;47.60;;;;;;5048452;28;45330;-75
2022/09/19 09:34:49;;;;;;;1.73;0.93;;;19.10;47.70;;;;;;5047600;28;45295;-76
2022/09/19 09:37:20;;;;;;;3.28;0.88;;;19.10;47.70;;;;;;5048306;28;45609;-75
2022/09/19 09:39:59;;;;;;;1.50;0.85;;;19.20;47.90;;;;;;5047237;28;45405;-75
2022/09/19 09:42:28;;;;;;;2.92;0.90;;;19.20;47.90;;;;;;5047938;28;45303;-75
2022/09/19 09:44:59;;;;;;;2.35;1.05;;;19.20;47.90;;;;;;5048077;28;45227;-77
2022/09/19 09:47:39;;;;;;;2.72;1.08;;;19.30;48.10;;;;;;5048331;28;45432;-76
2022/09/19 09:50:14;;;;;;;3.03;1.30;;;19.30;48.10;;;;;;5046968;28;46833;-77
2022/09/19 09:52:44;;;;;;;6.15;1.55;;;19.30;48.10;;;;;;5046976;28;45220;-77
2022/09/19 09:58:19;;;;;;;2.85;1.75;;;19.40;48.20;;;;;;5065971;28;45289;-77
2022/09/19 10:03:38;;;;;;;3.63;1.77;;;19.50;48.10;;;;;;5047722;28;45366;-77
2022/09/19 10:06:08;;;;;;;7.13;1.85;;;19.50;48.10;;;;;;5048021;28;45222;-78
2022/09/19 10:08:37;;;;;;;4.63;1.70;;;19.50;48.00;;;;;;5047841;28;45272;-76
2022/09/19 10:11:06;;;;;;;3.03;1.83;;;19.60;48.00;;;;;;5047023;28;46753;-75
2022/09/19 10:13:38;;;;;;;4.35;1.45;;;19.60;48.10;;;;;;5047373;28;45255;-76
2022/09/19 10:16:05;;;;;;;4.20;1.58;;;19.60;47.90;;;;;;5047554;28;45249;-77
2022/09/19 10:18:37;;;;;;;4.53;1.85;;;19.70;47.90;;;;;;5047253;28;45195;-75
2022/09/19 10:21:04;;;;;;;2.80;1.60;;;19.70;48.00;;;;;;5045190;28;45229;-75
2022/09/19 10:23:32;;;;;;;4.35;1.60;;;19.70;47.90;;;;;;5047286;28;45139;-76
2022/09/19 10:26:03;;;;;;;3.22;1.73;;;19.80;47.60;;;;;;5047678;28;45312;-78
2022/09/19 10:28:32;;;;;;;2.35;1.90;;;19.80;47.60;;;;;;5047761;28;45245;-77
2022/09/19 10:31:00;;;;;;;3.22;2.00;;;19.80;47.60;;;;;;5046936;28;45405;-78
2022/09/19 10:33:38;;;;;;;2.53;2.00;;;19.90;47.60;;;;;;5047174;28;45307;-77
2022/09/19 10:36:07;;;;;;;5.68;1.83;;;19.90;47.60;;;;;;5058370;28;45337;-78
2022/09/19 10:38:50;;;;;;;4.65;2.20;;;20.00;47.50;;;;;;5061779;28;45563;-77
2022/09/19 10:41:22;;;;;;;4.63;1.90;;;20.00;47.40;;;;;;5048269;28;46666;-77
2022/09/19 10:43:52;;;;;;;2.28;1.77;;;20.00;47.10;;;;;;5047358;28;45139;-78
2022/09/19 10:46:20;;;;;;;2.22;1.60;;;20.10;47.30;;;;;;5044938;28;45357;-76
2022/09/19 10:48:51;;;;;;;2.65;1.60;;;20.10;47.20;;;;;;5047342;28;45425;-78
2022/09/19 10:51:18;;;;;;;3.92;1.80;;;20.20;47.20;;;;;;5046944;28;45483;-77
2022/09/19 10:53:45;;;;;;;7.03;1.92;;;20.30;47.00;;;;;;5046805;28;45261;-79
2022/09/19 10:56:22;;;;;;;3.65;2.03;;;20.30;46.90;;;;;;5057087;28;45271;-78
2022/09/19 10:58:49;;;;;;;3.28;1.50;;;20.40;46.90;;;;;;5065980;28;45247;-77
2022/09/19 11:01:22;;;;;;;3.67;1.60;;;20.40;46.00;;;;;;5046916;28;45443;-80
2022/09/19 11:04:02;;;;;;;3.72;1.77;;;20.40;45.80;;;;;;5046724;28;45280;-81
2022/09/19 11:06:29;;;;;;;3.10;1.58;;;20.40;46.40;;;;;;5048176;28;45264;-76
2022/09/19 11:08:56;;;;;;;3.70;1.40;;;20.50;45.90;;;;;;5048431;28;45405;-77
2022/09/19 11:11:36;;;;;;;3.60;1.75;;;20.50;45.80;;;;;;5047872;28;46347;-79
2022/09/19 11:14:26;;;;;;;3.65;1.85;;;20.60;46.00;;;;;;5046613;28;45655;-80
2022/09/19 11:17:31;;;;;;;5.63;1.83;;;20.70;46.10;;;;;;5046844;28;45540;-76
2022/09/19 11:20:16;;;;;;;2.63;1.63;;;20.80;45.80;;;;;;5031585;28;45191;-78
2022/09/19 11:23:03;;;;;;;2.83;1.55;;;20.90;45.50;;;;;;5045210;28;45596;-77
2022/09/19 11:25:31;;;;;;;4.25;1.85;;;21.00;45.40;;;;;;5047149;28;45238;-77
2022/09/19 11:28:06;;;;;;;2.97;1.40;;;21.10;45.30;;;;;;5047239;28;45338;-77
2022/09/19 11:30:34;;;;;;;2.45;1.75;;;21.10;45.10;;;;;;5046656;28;45670;-80
2022/09/19 11:33:38;;;;;;;3.20;1.67;;;21.20;45.10;;;;;;5046039;28;45638;-78
2022/09/19 11:36:07;;;;;;;2.90;1.33;;;21.20;45.00;;;;;;5053315;28;45375;-79
2022/09/19 11:38:38;;;;;;;3.58;1.30;;;21.20;45.00;;;;;;5046916;28;45194;-77
2022/09/19 11:41:12;;;;;;;3.30;1.40;;;21.30;45.00;;;;;;5045569;28;45393;-79
2022/09/19 11:43:48;;;;;;;3.85;1.65;;;21.40;44.70;;;;;;5045727;28;45262;-79
2022/09/19 11:46:21;;;;;;;4.95;1.65;;;21.40;44.40;;;;;;5046318;28;45441;-77
2022/09/19 11:48:59;;;;;;;2.47;1.30;;;21.50;44.30;;;;;;5046084;28;45399;-76
2022/09/19 11:51:27;;;;;;;1.92;1.13;;;21.50;44.00;;;;;;5045683;28;45353;-78
2022/09/19 11:54:19;;;;;;;1.85;1.08;;;21.60;43.90;;;;;;5046401;28;45326;-79
2022/09/19 11:56:55;;;;;;;2.22;1.30;;;21.60;43.90;;;;;;5048464;28;45230;-78
2022/09/19 11:59:34;;;;;;;2.90;1.02;;;21.70;43.50;;;;;;5046516;28;45218;-78
2022/09/19 12:02:21;;;;;;;2.92;1.05;;;21.70;42.20;;;;;;5046413;28;45253;-77
2022/09/19 12:04:50;;;;;;;2.28;0.93;;;21.70;42.90;;;;;;5045558;28;47660;-78
2022/09/19 12:07:26;;;;;;;2.75;1.00;;;21.80;43.30;;;;;;5046160;28;45303;-79
2022/09/19 12:09:56;;;;;;;2.60;0.80;;;21.90;43.20;;;;;;5045719;28;45342;-76
2022/09/19 12:12:24;;;;;;;3.60;1.10;;;21.90;43.20;;;;;;5046219;28;45397;-79
2022/09/19 12:14:55;;;;;;;0.85;0.75;;;22.00;43.30;;;;;;5045801;28;45353;-77
2022/09/19 12:17:25;;;;;;;1.40;0.98;;;22.00;43.60;;;;;;5046053;28;45188;-76
2022/09/19 12:19:57;;;;;;;2.40;0.90;;;22.10;42.90;;;;;;5045876;28;45313;-76
2022/09/19 12:22:26;;;;;;;2.90;0.70;;;22.10;43.00;;;;;;5045583;28;45496;-75
2022/09/19 12:24:58;;;;;;;1.20;0.82;;;22.20;42.80;;;;;;5045736;28;46396;-79
2022/09/19 12:27:32;;;;;;;3.95;1.27;;;22.20;43.00;;;;;;5048727;28;45447;-77
2022/09/19 12:30:05;;;;;;;2.78;1.23;;;22.20;42.90;;;;;;5049265;28;45274;-74
2022/09/19 12:32:41;;;;;;;3.33;1.13;;;22.30;43.10;;;;;;5049027;28;45190;-76
2022/09/19 12:35:14;;;;;;;2.40;1.20;;;22.30;43.10;;;;;;5052772;28;46356;-78
2022/09/19 12:37:45;;;;;;;6.57;1.58;;;22.40;43.00;;;;;;5060242;28;45210;-78
2022/09/19 12:40:24;;;;;;;4.60;1.63;;;22.40;42.60;;;;;;5048919;28;45341;-77
2022/09/19 12:42:53;;;;;;;2.97;1.30;;;22.50;42.80;;;;;;5049052;28;45190;-76
2022/09/19 12:45:23;;;;;;;3.53;1.50;;;22.50;42.90;;;;;;5048859;28;45353;-77
2022/09/19 12:48:00;;;;;;;4.00;1.30;;;22.50;42.40;;;;;;5048950;28;45318;-77
2022/09/19 12:50:32;;;;;;;1.55;1.30;;;22.60;42.50;;;;;;5049009;28;45200;-76
2022/09/19 12:53:10;;;;;;;1.52;1.20;;;22.60;41.80;;;;;;5049037;28;45463;-76
2022/09/19 12:55:39;;;;;;;2.42;1.75;;;22.60;42.10;;;;;;5052645;28;46633;-75
2022/09/19 12:58:10;;;;;;;4.13;1.50;;;22.70;42.00;;;;;;5047886;28;45412;-74
2022/09/19 13:00:42;;;;;;;3.92;1.60;;;22.70;42.00;;;;;;5044927;28;45222;-74
2022/09/19 13:03:13;;;;;;;2.42;1.00;;;22.70;41.60;;;;;;5048765;28;45339;-74
2022/09/19 13:05:42;;;;;;;2.38;1.35;;;22.70;40.80;;;;;;5048657;28;46663;-74
2022/09/19 13:08:12;;;;;;;2.53;1.08;;;22.80;41.70;;;;;;5047920;28;45255;-74
2022/09/19 13:10:39;;;;;;;3.40;1.05;;;22.80;41.30;;;;;;5048040;28;45610;-74
2022/09/19 13:13:10;;;;;;;2.25;0.98;;;22.80;40.50;;;;;;5048453;28;45388;-74
2022/09/19 13:15:41;;;;;;;4.53;1.13;;;22.80;41.60;;;;;;5048546;28;46673;-76
2022/09/19 13:23:40;;;;;;;2.47;1.00;;;22.90;39.30;;;;;;5046181;28;45237;-74